createdAt,value
2023-04-02T00:01:27.079Z,101304.13
2023-04-02T00:04:22.599Z,101303.31
2023-04-02T00:06:57.233Z,101313.69
2023-04-02T00:09:35.001Z,101310.06
2023-04-02T00:12:21.110Z,101310.56
2023-04-02T00:14:58.553Z,101308.91
2023-04-02T00:17:29.125Z,101311.72
2023-04-02T00:20:06.831Z,101304.97
2023-04-02T00:22:37.377Z,101313.38
2023-04-02T00:25:16.938Z,101315.00
2023-04-02T00:27:47.930Z,101314.19
2023-04-02T00:30:20.351Z,101311.38
2023-04-02T00:32:52.112Z,101309.72
2023-04-02T00:35:29.254Z,101308.44
2023-04-02T00:38:00.484Z,101304.31
2023-04-02T00:40:33.824Z,101316.19
2023-04-02T00:43:06.454Z,101310.09
2023-04-02T00:45:41.641Z,101309.59
2023-04-02T00:48:36.839Z,101306.34
2023-04-02T00:51:20.570Z,101300.56
2023-04-02T00:53:54.457Z,101304.56
2023-04-02T00:56:30.800Z,101301.56
2023-04-02T00:59:01.954Z,101309.16
2023-04-02T01:01:43.004Z,101301.13
2023-04-02T01:04:34.570Z,101300.28
2023-04-02T01:07:11.078Z,101305.38
2023-04-02T01:10:26.216Z,101300.94
2023-04-02T01:13:10.953Z,101301.28
2023-04-02T01:15:50.923Z,101298.47
2023-04-02T01:18:50.788Z,101296.84
2023-04-02T01:21:55.859Z,101300.78
2023-04-02T01:24:32.881Z,101301.13
2023-04-02T01:27:08.553Z,101308.38
2023-04-02T01:29:46.561Z,101306.38
2023-04-02T01:32:21.187Z,101309.19
2023-04-02T01:34:54.205Z,101298.00
2023-04-02T01:37:39.807Z,101303.59
2023-04-02T01:40:35.280Z,101292.72
2023-04-02T01:43:20.147Z,101297.53
2023-04-02T01:45:52.827Z,101302.28
2023-04-02T01:48:28.405Z,101295.53
2023-04-02T01:51:04.533Z,101292.72
2023-04-02T01:53:35.160Z,101291.94
2023-04-02T01:56:07.920Z,101293.88
2023-04-02T01:58:38.449Z,101298.69
2023-04-02T02:01:18.709Z,101296.69
2023-04-02T02:03:49.968Z,101297.84
2023-04-02T02:06:21.918Z,101304.28
2023-04-02T02:08:57.363Z,101302.63
2023-04-02T02:11:32.432Z,101297.03
2023-04-02T02:14:08.034Z,101301.47
2023-04-02T02:16:43.870Z,101301.78
2023-04-02T02:19:28.306Z,101294.22
2023-04-02T02:22:12.319Z,101299.34
2023-04-02T02:24:43.592Z,101302.94
2023-04-02T02:27:51.327Z,101294.88
2023-04-02T02:30:29.543Z,101305.28
2023-04-02T02:33:09.270Z,101298.84
2023-04-02T02:35:51.440Z,101305.59
2023-04-02T02:38:54.394Z,101305.09
2023-04-02T02:41:36.038Z,101295.75
2023-04-02T02:44:15.870Z,101298.84
2023-04-02T02:46:52.986Z,101305.66
2023-04-02T02:49:32.795Z,101300.84
2023-04-02T02:52:09.604Z,101299.53
2023-04-02T02:54:46.180Z,101296.72
2023-04-02T02:57:23.081Z,101298.69
2023-04-02T02:59:56.193Z,101299.81
2023-04-02T03:02:29.963Z,101287.00
2023-04-02T03:05:03.282Z,101294.22
2023-04-02T03:07:34.052Z,101295.41
2023-04-02T03:10:17.119Z,101297.38
2023-04-02T03:12:54.972Z,101301.31
2023-04-02T03:15:36.039Z,101297.72
2023-04-02T03:18:14.456Z,101308.06
2023-04-02T03:20:54.672Z,101304.47
2023-04-02T03:23:32.673Z,101304.47
2023-04-02T03:26:10.979Z,101311.22
2023-04-02T03:28:49.010Z,101316.00
2023-04-02T03:31:28.506Z,101313.22
2023-04-02T03:34:03.556Z,101314.38
2023-04-02T03:36:47.071Z,101319.97
2023-04-02T03:39:26.703Z,101305.97
2023-04-02T03:42:05.788Z,101319.13
2023-04-02T03:44:46.051Z,101333.13
2023-04-02T03:47:26.917Z,101329.53
2023-04-02T03:50:04.081Z,101334.28
2023-04-02T03:52:40.231Z,101339.06
2023-04-02T03:55:18.394Z,101330.97
2023-04-02T03:58:00.700Z,101334.13
2023-04-02T04:00:40.011Z,101337.25
2023-04-02T04:03:18.183Z,101344.81
2023-04-02T04:05:55.897Z,101340.38
2023-04-02T04:08:38.518Z,101347.16
2023-04-02T04:11:16.933Z,101345.16
2023-04-02T04:13:54.873Z,101342.38
2023-04-02T04:16:32.645Z,101337.56
2023-04-02T04:19:08.604Z,101342.38
2023-04-02T04:21:39.627Z,101347.97
2023-04-02T04:24:24.886Z,101346.81
2023-04-02T04:27:04.418Z,101347.97
2023-04-02T04:29:47.507Z,101344.34
2023-04-02T04:32:32.709Z,101339.56
2023-04-02T04:35:16.904Z,101336.78
2023-04-02T04:37:54.454Z,101339.56
2023-04-02T04:40:29.694Z,101337.25
2023-04-02T04:43:06.765Z,101340.06
2023-04-02T04:45:50.522Z,101338.56
2023-04-02T04:48:29.805Z,101333.78
2023-04-02T04:51:06.431Z,101339.88
2023-04-02T04:53:43.581Z,101343.16
2023-04-02T04:56:20.087Z,101339.72
2023-04-02T04:58:56.442Z,101344.63
2023-04-02T05:01:35.499Z,101354.88
2023-04-02T05:04:16.835Z,101342.69
2023-04-02T05:06:55.009Z,101336.91
2023-04-02T05:09:33.658Z,101336.75
2023-04-02T05:12:20.101Z,101344.94
2023-04-02T05:14:58.748Z,101344.44
2023-04-02T05:17:36.961Z,101347.03
2023-04-02T05:20:17.842Z,101350.16
2023-04-02T05:22:55.744Z,101358.03
2023-04-02T05:25:30.208Z,101356.69
2023-04-02T05:28:10.022Z,101354.19
2023-04-02T05:30:53.080Z,101356.13
2023-04-02T05:33:30.588Z,101362.88
2023-04-02T05:36:05.987Z,101364.81
2023-04-02T05:38:40.494Z,101367.59
2023-04-02T05:41:27.269Z,101359.81
2023-04-02T05:44:11.629Z,101366.03
2023-04-02T05:46:52.779Z,101373.56
2023-04-02T05:49:32.194Z,101364.94
2023-04-02T05:52:06.229Z,101366.06
2023-04-02T05:54:46.397Z,101376.41
2023-04-02T05:57:35.823Z,101375.53
2023-04-02T06:00:25.850Z,101388.38
2023-04-02T06:03:07.765Z,101390.63
2023-04-02T06:05:44.790Z,101391.38
2023-04-02T06:08:23.370Z,101394.13
2023-04-02T06:11:03.413Z,101396.38
2023-04-02T06:13:33.346Z,101402.25
2023-04-02T06:16:05.362Z,101393.28
2023-04-02T06:18:39.351Z,101385.91
2023-04-02T06:21:11.353Z,101392.63
2023-04-02T06:23:50.054Z,101387.25
2023-04-02T06:26:27.411Z,101391.19
2023-04-02T06:29:09.015Z,101388.63
2023-04-02T06:31:49.409Z,101392.53
2023-04-02T06:34:23.276Z,101385.16
2023-04-02T06:36:59.896Z,101391.88
2023-04-02T06:39:31.371Z,101393.75
2023-04-02T06:42:09.792Z,101388.34
2023-04-02T06:44:41.988Z,101384.63
2023-04-02T06:47:29.697Z,101382.91
2023-04-02T06:50:09.523Z,101386.78
2023-04-02T06:52:47.099Z,101385.03
2023-04-02T06:55:39.481Z,101386.06
2023-04-02T06:58:11.480Z,101387.47
2023-04-02T07:00:46.305Z,101380.06
2023-04-02T07:03:25.524Z,101379.13
2023-04-02T07:05:56.749Z,101381.34
2023-04-02T07:08:27.853Z,101380.75
2023-04-02T07:10:58.849Z,101374.50
2023-04-02T07:13:28.876Z,101380.38
2023-04-02T07:15:59.462Z,101375.00
2023-04-02T07:18:35.443Z,101381.19
2023-04-02T07:21:05.455Z,101380.94
2023-04-02T07:23:35.985Z,101386.34
2023-04-02T07:26:07.622Z,101393.34
2023-04-02T07:28:37.971Z,101386.63
2023-04-02T07:31:20.342Z,101391.66
2023-04-02T07:33:52.366Z,101383.78
2023-04-02T07:36:25.418Z,101389.13
2023-04-02T07:38:55.801Z,101371.63
2023-04-02T07:41:26.640Z,101374.22
2023-04-02T07:43:57.073Z,101379.22
2023-04-02T07:46:27.269Z,101376.94
2023-04-02T07:48:59.165Z,101375.06
2023-04-02T07:51:29.803Z,101367.88
2023-04-02T07:54:02.238Z,101361.53
2023-04-02T07:56:33.094Z,101365.28
2023-04-02T07:59:03.747Z,101357.72
2023-04-02T08:01:36.399Z,101358.25
2023-04-02T08:04:09.632Z,101361.63
2023-04-02T08:06:40.049Z,101353.72
2023-04-02T08:09:09.836Z,101350.25
2023-04-02T08:11:40.561Z,101354.44
2023-04-02T08:14:11.285Z,101344.56
2023-04-02T08:16:50.599Z,101343.09
2023-04-02T08:19:23.019Z,101348.44
2023-04-02T08:21:55.468Z,101342.53
2023-04-02T08:24:25.411Z,101340.25
2023-04-02T08:26:56.009Z,101336.31
2023-04-02T08:29:26.533Z,101328.78
2023-04-02T08:31:56.609Z,101328.47
2023-04-02T08:34:29.656Z,101328.19
2023-04-02T08:37:01.209Z,101318.63
2023-04-02T08:39:33.579Z,101321.16
2023-04-02T08:42:20.035Z,101313.19
2023-04-02T08:45:21.264Z,101312.13
2023-04-02T08:48:00.348Z,101312.19
2023-04-02T08:50:37.248Z,101311.53
2023-04-02T08:53:17.515Z,101307.59
2023-04-02T08:56:05.136Z,101307.66
2023-04-02T08:58:44.209Z,101299.25
2023-04-02T09:01:27.396Z,101303.00
2023-04-02T09:04:01.084Z,101298.59
2023-04-02T09:06:33.931Z,101292.22
2023-04-02T09:09:05.512Z,101291.47
2023-04-02T09:11:47.975Z,101291.53
2023-04-02T09:14:22.938Z,101292.00
2023-04-02T09:16:56.993Z,101286.81
2023-04-02T09:19:36.175Z,101284.00
2023-04-02T09:22:16.276Z,101289.31
2023-04-02T09:24:46.327Z,101278.44
2023-04-02T09:27:23.548Z,101280.50
2023-04-02T09:30:01.234Z,101266.00
2023-04-02T09:32:50.549Z,101262.81
2023-04-02T09:35:26.902Z,101259.16
2023-04-02T09:38:22.912Z,101257.94
2023-04-02T09:41:00.186Z,101262.41
2023-04-02T09:43:32.587Z,101256.44
2023-04-02T09:46:05.665Z,101246.75
2023-04-02T09:48:40.366Z,101240.72
2023-04-02T09:51:17.809Z,101244.81
2023-04-02T09:53:53.154Z,101246.44
2023-04-02T09:56:26.949Z,101245.63
2023-04-02T09:59:09.479Z,101250.53
2023-04-02T10:01:42.953Z,101242.88
2023-04-02T10:04:38.019Z,101241.69
2023-04-02T10:07:09.408Z,101238.84
2023-04-02T10:09:41.270Z,101242.09
2023-04-02T10:12:17.524Z,101238.91
2023-04-02T10:14:52.461Z,101237.72
2023-04-02T10:17:27.819Z,101227.22
2023-04-02T10:20:06.915Z,101232.50
2023-04-02T10:22:37.727Z,101228.47
2023-04-02T10:25:17.752Z,101238.22
2023-04-02T10:27:59.227Z,101228.91
2023-04-02T10:30:38.099Z,101230.53
2023-04-02T10:33:20.592Z,101231.38
2023-04-02T10:36:03.890Z,101233.38
2023-04-02T10:38:44.834Z,101235.75
2023-04-02T10:41:33.600Z,101243.44
2023-04-02T10:44:37.178Z,101234.91
2023-04-02T10:47:32.052Z,101240.91
2023-04-02T10:50:31.572Z,101234.44
2023-04-02T10:53:13.838Z,101232.00
2023-04-02T10:55:50.477Z,101239.22
2023-04-02T10:58:29.262Z,101242.03
2023-04-02T11:01:05.670Z,101232.31
2023-04-02T11:03:42.309Z,101239.16
2023-04-02T11:06:23.127Z,101235.53
2023-04-02T11:09:01.596Z,101233.03
2023-04-02T11:11:41.310Z,101229.81
2023-04-02T11:14:20.256Z,101231.78
2023-04-02T11:16:53.338Z,101222.50
2023-04-02T11:19:30.940Z,101216.84
2023-04-02T11:22:06.656Z,101218.84
2023-04-02T11:24:46.837Z,101214.84
2023-04-02T11:27:29.978Z,101202.72
2023-04-02T11:30:28.036Z,101206.72
2023-04-02T11:33:44.779Z,101205.47
2023-04-02T11:37:11.073Z,101205.00
2023-04-02T11:39:59.828Z,101202.94
2023-04-02T11:42:33.677Z,101191.16
2023-04-02T11:46:00.119Z,101202.03
2023-04-02T11:48:34.226Z,101196.31
2023-04-02T11:51:13.032Z,101204.38
2023-04-02T11:53:46.333Z,101190.59
2023-04-02T11:56:24.904Z,101183.31
2023-04-02T11:59:13.267Z,101188.56
2023-04-02T12:02:08.610Z,101191.72
2023-04-02T12:05:09.630Z,101194.13
2023-04-02T12:08:18.792Z,101195.69
2023-04-02T12:11:01.586Z,101192.06
2023-04-02T12:13:53.443Z,101194.88
2023-04-02T12:16:31.596Z,101199.69
2023-04-02T12:19:04.960Z,101201.72
2023-04-02T12:21:35.996Z,101196.06
2023-04-02T12:24:07.529Z,101194.03
2023-04-02T12:26:42.745Z,101195.25
2023-04-02T12:29:33.984Z,101200.47
2023-04-02T12:32:04.694Z,101199.19
2023-04-02T12:34:36.704Z,101198.72
2023-04-02T12:37:08.967Z,101191.03
2023-04-02T12:39:39.285Z,101186.97
2023-04-02T12:42:29.651Z,101184.47
2023-04-02T12:44:59.737Z,101182.41
2023-04-02T12:47:31.596Z,101179.56
2023-04-02T12:50:05.006Z,101178.78
2023-04-02T12:52:35.666Z,101178.31
2023-04-02T12:55:07.602Z,101173.06
2023-04-02T12:57:42.801Z,101176.25
2023-04-02T13:00:38.007Z,101173.00
2023-04-02T13:03:29.086Z,101161.63
2023-04-02T13:06:02.187Z,101158.66
2023-04-02T13:08:44.130Z,101163.50
2023-04-02T13:11:14.550Z,101154.16
2023-04-02T13:13:48.846Z,101159.00
2023-04-02T13:16:36.575Z,101151.25
2023-04-02T13:19:26.352Z,101158.47
2023-04-02T13:22:00.935Z,101158.41
2023-04-02T13:24:35.436Z,101155.97
2023-04-02T13:27:06.981Z,101154.69
2023-04-02T13:29:39.114Z,101158.28
2023-04-02T13:32:15.206Z,101143.69
2023-04-02T13:34:45.591Z,101155.72
2023-04-02T13:37:17.613Z,101151.66
2023-04-02T13:39:48.491Z,101151.19
2023-04-02T13:42:21.059Z,101150.75
2023-04-02T13:44:51.589Z,101148.31
2023-04-02T13:47:21.885Z,101138.59
2023-04-02T13:49:52.584Z,101141.75
2023-04-02T13:52:25.033Z,101141.75
2023-04-02T13:55:01.838Z,101141.34
2023-04-02T13:57:32.641Z,101138.88
2023-04-02T14:00:03.475Z,101139.25
2023-04-02T14:02:35.251Z,101151.72
2023-04-02T14:05:24.206Z,101148.44
2023-04-02T14:08:09.481Z,101143.97
2023-04-02T14:11:02.320Z,101145.56
2023-04-02T14:14:00.431Z,101145.09
2023-04-02T14:16:51.987Z,101143.47
2023-04-02T14:19:47.559Z,101139.84
2023-04-02T14:22:36.956Z,101136.56
2023-04-02T14:25:22.116Z,101139.75
2023-04-02T14:28:05.488Z,101134.47
2023-04-02T14:30:47.997Z,101137.66
2023-04-02T14:33:36.790Z,101131.53
2023-04-02T14:36:18.239Z,101126.28
2023-04-02T14:38:59.822Z,101130.28
2023-04-02T14:41:41.921Z,101135.47
2023-04-02T14:44:15.360Z,101137.84
2023-04-02T14:46:47.267Z,101133.75
2023-04-02T14:49:28.057Z,101139.41
2023-04-02T14:52:06.570Z,101138.94
2023-04-02T14:54:41.425Z,101140.97
2023-04-02T14:57:23.636Z,101133.69
2023-04-02T15:00:06.072Z,101138.88
2023-04-02T15:02:48.969Z,101142.06
2023-04-02T15:05:23.509Z,101133.97
2023-04-02T15:08:00.010Z,101135.97
2023-04-02T15:10:34.555Z,101134.34
2023-04-02T15:13:18.292Z,101142.00
2023-04-02T15:15:57.055Z,101140.72
2023-04-02T15:18:27.461Z,101141.09
2023-04-02T15:21:12.128Z,101137.47
2023-04-02T15:23:58.728Z,101143.44
2023-04-02T15:26:41.548Z,101141.00
2023-04-02T15:29:29.423Z,101144.22
2023-04-02T15:32:12.582Z,101145.38
2023-04-02T15:34:49.078Z,101141.28
2023-04-02T15:37:31.258Z,101136.84
2023-04-02T15:40:21.374Z,101140.84
2023-04-02T15:43:03.454Z,101139.56
2023-04-02T15:45:51.654Z,101144.78
2023-04-02T15:49:03.796Z,101141.50
2023-04-02T15:51:54.081Z,101138.22
2023-04-02T15:54:53.738Z,101136.59
2023-04-02T15:57:49.494Z,101137.31
2023-04-02T16:00:33.875Z,101136.88
2023-04-02T16:03:43.889Z,101138.41
2023-04-02T16:06:32.931Z,101134.31
2023-04-02T16:09:20.633Z,101137.53
2023-04-02T16:11:58.064Z,101137.06
2023-04-02T16:14:31.000Z,101141.06
2023-04-02T16:17:21.459Z,101141.44
2023-04-02T16:20:11.198Z,101142.97
2023-04-02T16:22:57.200Z,101141.66
2023-04-02T16:25:37.296Z,101136.41
2023-04-02T16:28:26.006Z,101137.59
2023-04-02T16:31:03.734Z,101142.78
2023-04-02T16:33:53.798Z,101139.50
2023-04-02T16:36:43.321Z,101137.06
2023-04-02T16:39:29.117Z,101138.59
2023-04-02T16:42:18.404Z,101134.16
2023-04-02T16:45:05.438Z,101148.63
2023-04-02T16:48:02.756Z,101146.13
2023-04-02T16:50:49.637Z,101144.50
2023-04-02T16:53:36.499Z,101138.44
2023-04-02T16:56:29.319Z,101133.16
2023-04-02T16:59:14.813Z,101145.59
2023-04-02T17:01:57.725Z,101132.25
2023-04-02T17:05:07.092Z,101137.44
2023-04-02T17:07:46.326Z,101146.22
2023-04-02T17:10:35.436Z,101142.13
2023-04-02T17:13:21.600Z,101130.41
2023-04-02T17:16:04.832Z,101130.78
2023-04-02T17:18:36.393Z,101128.34
2023-04-02T17:21:11.060Z,101128.69
2023-04-02T17:26:31.358Z,101129.44
2023-04-02T17:29:11.144Z,101133.44
2023-04-02T17:31:43.141Z,101135.78
2023-04-02T17:34:16.889Z,101137.78
2023-04-02T17:37:00.945Z,101140.94
2023-04-02T17:39:44.290Z,101146.13
2023-04-02T17:42:32.532Z,101141.66
2023-04-02T17:45:17.094Z,101144.84
2023-04-02T17:48:00.428Z,101136.41
2023-04-02T17:51:04.746Z,101141.56
2023-04-02T17:53:51.804Z,101139.13
2023-04-02T17:56:41.834Z,101133.03
2023-04-02T17:59:42.489Z,101137.88
2023-04-02T18:02:41.634Z,101136.56
2023-04-02T18:05:27.346Z,101140.59
2023-04-02T18:08:13.900Z,101146.22
2023-04-02T18:11:03.027Z,101151.41
2023-04-02T18:13:38.372Z,101161.81
2023-04-02T18:16:32.599Z,101165.78
2023-04-02T18:19:17.978Z,101168.97
2023-04-02T18:22:01.230Z,101175.78
2023-04-02T18:24:51.125Z,101174.97
2023-04-02T18:27:51.103Z,101166.88
2023-04-02T18:30:34.640Z,101166.44
2023-04-02T18:33:41.178Z,101164.78
2023-04-02T18:36:21.656Z,101167.13
2023-04-02T18:39:03.711Z,101169.94
2023-04-02T18:42:00.747Z,101173.94
2023-04-02T18:44:54.019Z,101174.31
2023-04-02T18:47:37.170Z,101163.41
2023-04-02T18:50:20.349Z,101175.81
2023-04-02T18:52:52.392Z,101173.38
2023-04-02T18:55:27.707Z,101171.75
2023-04-02T18:58:06.983Z,101169.28
2023-04-02T19:00:42.762Z,101173.28
2023-04-02T19:03:23.574Z,101175.28
2023-04-02T19:06:03.732Z,101173.66
2023-04-02T19:08:41.968Z,101169.53
2023-04-02T19:11:18.740Z,101173.53
2023-04-02T19:13:51.694Z,101168.28
2023-04-02T19:16:47.536Z,101168.63
2023-04-02T19:19:22.510Z,101167.38
2023-04-02T19:22:17.656Z,101160.09
2023-04-02T19:25:26.827Z,101161.59
2023-04-02T19:28:14.152Z,101159.16
2023-04-02T19:31:15.059Z,101151.09
2023-04-02T19:33:55.007Z,101153.91
2023-04-02T19:36:51.915Z,101145.00
2023-04-02T19:40:07.127Z,101136.09
2023-04-02T19:42:48.187Z,101129.19
2023-04-02T19:45:41.324Z,101132.00
2023-04-02T19:48:20.706Z,101133.97
2023-04-02T19:50:52.250Z,101137.97
2023-04-02T19:53:23.126Z,101139.19
2023-04-02T19:55:55.897Z,101139.19
2023-04-02T19:58:33.348Z,101135.16
2023-04-02T20:01:04.844Z,101131.91
2023-04-02T20:03:35.563Z,101130.28
2023-04-02T20:06:06.322Z,101126.63
2023-04-02T20:08:39.505Z,101132.63
2023-04-02T20:11:12.316Z,101135.44
2023-04-02T20:13:42.839Z,101133.78
2023-04-02T20:16:14.869Z,101137.78
2023-04-02T20:18:46.195Z,101136.13
2023-04-02T20:21:16.206Z,101134.50
2023-04-02T20:23:46.404Z,101135.66
2023-04-02T20:26:18.966Z,101137.69
2023-04-02T20:28:49.649Z,101125.94
2023-04-02T20:31:21.929Z,101129.94
2023-04-02T20:33:52.758Z,101129.13
2023-04-02T20:36:23.209Z,101132.31
2023-04-02T20:38:54.504Z,101136.31
2023-04-02T20:41:27.002Z,101137.47
2023-04-02T20:43:57.887Z,101130.22
2023-04-02T20:46:27.940Z,101132.19
2023-04-02T20:48:57.819Z,101132.56
2023-04-02T20:51:28.283Z,101132.56
2023-04-02T20:53:58.945Z,101130.06
2023-04-02T20:56:31.564Z,101127.25
2023-04-02T20:59:02.257Z,101119.16
2023-04-02T21:01:35.065Z,101117.53
2023-04-02T21:04:07.237Z,101118.72
2023-04-02T21:06:41.654Z,101118.72
2023-04-02T21:09:17.472Z,101121.88
2023-04-02T21:11:50.269Z,101113.81
2023-04-02T21:14:21.198Z,101114.19
2023-04-02T21:16:51.719Z,101108.56
2023-04-02T21:19:22.308Z,101111.69
2023-04-02T21:21:52.739Z,101109.25
2023-04-02T21:24:23.297Z,101100.81
2023-04-02T21:26:55.859Z,101101.16
2023-04-02T21:29:26.457Z,101106.34
2023-04-02T21:31:58.471Z,101103.53
2023-04-02T21:34:29.826Z,101099.06
2023-04-02T21:37:00.299Z,101105.88
2023-04-02T21:39:30.854Z,101095.00
2023-04-02T21:42:03.107Z,101095.31
2023-04-02T21:44:33.664Z,101101.31
2023-04-02T21:47:04.252Z,101094.06
2023-04-02T21:49:35.727Z,101087.97
2023-04-02T21:52:05.703Z,101087.16
2023-04-02T21:54:35.935Z,101079.06
2023-04-02T21:57:08.486Z,101079.06
2023-04-02T21:59:38.810Z,101074.59
2023-04-02T22:02:09.314Z,101074.97
2023-04-02T22:04:39.043Z,101070.53
2023-04-02T22:07:09.248Z,101076.50
2023-04-02T22:09:39.307Z,101071.69
2023-04-02T22:12:12.848Z,101075.69
2023-04-02T22:14:43.345Z,101072.44
2023-04-02T22:17:13.955Z,101073.59
2023-04-02T22:19:44.381Z,101067.16
2023-04-02T22:22:14.388Z,101061.88
2023-04-02T22:24:44.623Z,101058.59
2023-04-02T22:27:16.325Z,101064.22
2023-04-02T22:29:46.786Z,101056.97
2023-04-02T22:32:17.459Z,101059.31
2023-04-02T22:34:47.441Z,101060.50
2023-04-02T22:37:17.853Z,101060.03
2023-04-02T22:39:48.613Z,101064.03
2023-04-02T22:42:21.577Z,101046.69
2023-04-02T22:44:51.926Z,101052.69
2023-04-02T22:47:22.375Z,101049.41
2023-04-02T22:49:52.655Z,101044.47
2023-04-02T22:52:23.204Z,101047.28
2023-04-02T22:54:53.636Z,101035.59
2023-04-02T22:57:25.687Z,101042.03
2023-04-02T22:59:56.270Z,101035.94
2023-04-02T23:02:26.465Z,101029.53
2023-04-02T23:04:57.116Z,101029.06
2023-04-02T23:07:27.808Z,101022.59
2023-04-02T23:09:58.365Z,101030.22
2023-04-02T23:12:31.149Z,101022.16
2023-04-02T23:15:03.129Z,101024.13
2023-04-02T23:17:33.610Z,101019.69
2023-04-02T23:20:04.231Z,101013.56
2023-04-02T23:22:34.468Z,101017.56
2023-04-02T23:25:04.557Z,101010.31
2023-04-02T23:27:37.556Z,101015.09
2023-04-02T23:30:09.582Z,101010.19
2023-04-02T23:32:40.177Z,101009.38
2023-04-02T23:35:11.318Z,101008.56
2023-04-02T23:37:42.371Z,101001.31
2023-04-02T23:40:13.967Z,101001.31
2023-04-02T23:42:46.495Z,100998.84
2023-04-02T23:45:18.410Z,100994.38
2023-04-02T23:47:48.859Z,100992.78
2023-04-02T23:50:19.350Z,100993.13
2023-04-02T23:52:49.467Z,100980.25
2023-04-02T23:55:20.141Z,100981.06
2023-04-02T23:57:52.154Z,100977.81
